Time;durP1;ratioP1;P1;durP2;ratioP2;P2;SDS_P1;SDS_P2;PMS_P1;PMS_P2;Temp;Humidity;BMP_temperature;BMP_pressure;BME280_temperature;BME280_humidity;BME280_pressure;Samples;Min_cycle;Max_cycle;Signal;HPM_P1;HPM_P2
2023/05/16 00:02:24;;;;;;;10.13;9.43;;;13.90;70.30;;;;;;6222464;28;20322;-84
2023/05/16 00:05:27;;;;;;;11.23;10.20;;;13.80;70.40;;;;;;6230122;28;20235;-83
2023/05/16 00:08:31;;;;;;;13.33;11.00;;;13.90;70.40;;;;;;6240254;28;20239;-85
2023/05/16 00:11:35;;;;;;;11.53;10.63;;;13.80;70.30;;;;;;6237489;28;20718;-83
2023/05/16 00:14:38;;;;;;;12.30;11.20;;;13.90;70.10;;;;;;6238569;28;20296;-85
2023/05/16 00:17:45;;;;;;;10.90;10.17;;;13.90;70.10;;;;;;6240496;28;20756;-82
2023/05/16 00:20:48;;;;;;;11.57;10.67;;;13.90;70.10;;;;;;6236103;28;20239;-83
2023/05/16 00:23:53;;;;;;;10.57;9.87;;;13.90;70.20;;;;;;6232408;28;20234;-85
2023/05/16 00:26:56;;;;;;;11.30;10.50;;;13.90;70.30;;;;;;6244522;28;20234;-82
2023/05/16 00:30:00;;;;;;;11.00;10.13;;;13.90;70.30;;;;;;6227388;28;20302;-82
2023/05/16 00:33:04;;;;;;;12.00;11.10;;;13.80;70.30;;;;;;6222733;28;20264;-83
2023/05/16 00:36:08;;;;;;;11.40;10.50;;;13.70;70.40;;;;;;6234482;28;20273;-82
2023/05/16 00:39:13;;;;;;;12.37;11.47;;;13.70;70.40;;;;;;6232212;28;20794;-85
2023/05/16 00:42:21;;;;;;;12.60;11.57;;;13.80;70.30;;;;;;6238534;28;20239;-84
2023/05/16 00:45:25;;;;;;;12.83;11.90;;;13.70;70.50;;;;;;6231054;28;20331;-83
2023/05/16 00:48:28;;;;;;;12.73;11.80;;;13.60;70.80;;;;;;6225177;28;20242;-84
2023/05/16 00:51:31;;;;;;;13.40;12.30;;;13.60;70.80;;;;;;6232598;28;20235;-84
2023/05/16 00:54:36;;;;;;;13.70;12.60;;;13.60;71.00;;;;;;6241887;28;20759;-84
2023/05/16 00:57:40;;;;;;;12.83;11.83;;;13.50;71.30;;;;;;6241679;28;20317;-85
2023/05/16 01:00:46;;;;;;;13.27;11.90;;;13.50;71.10;;;;;;6242828;28;20238;-85
2023/05/16 01:03:51;;;;;;;14.23;13.03;;;13.50;71.10;;;;;;6238922;28;20758;-84
2023/05/16 01:06:56;;;;;;;13.30;12.07;;;13.50;71.30;;;;;;6228503;28;20875;-84
2023/05/16 01:10:01;;;;;;;14.60;13.50;;;13.50;71.50;;;;;;6232731;28;20742;-85
2023/05/16 01:13:13;;;;;;;14.83;13.40;;;13.30;71.80;;;;;;6220355;28;20236;-86
2023/05/16 01:16:24;;;;;;;14.27;13.17;;;13.30;71.90;;;;;;6226521;28;20649;-83
2023/05/16 01:19:46;;;;;;;16.17;14.57;;;13.30;72.10;;;;;;6241196;28;20292;-83
2023/05/16 01:23:01;;;;;;;16.73;15.00;;;13.20;72.50;;;;;;6216582;28;20238;-84
2023/05/16 01:26:14;;;;;;;16.87;15.40;;;13.10;72.80;;;;;;6238915;28;20894;-84
2023/05/16 01:29:18;;;;;;;17.80;15.93;;;13.10;72.80;;;;;;6232283;28;20235;-84
2023/05/16 01:32:21;;;;;;;18.57;15.63;;;13.10;72.90;;;;;;6231124;28;20247;-85
2023/05/16 01:35:25;;;;;;;18.27;16.67;;;13.00;73.00;;;;;;6224690;28;20242;-85
2023/05/16 01:38:37;;;;;;;19.17;17.30;;;12.90;72.90;;;;;;6237536;28;20237;-83
2023/05/16 01:41:50;;;;;;;18.27;16.50;;;12.90;72.80;;;;;;6244640;28;20240;-83
2023/05/16 01:45:02;;;;;;;18.57;16.77;;;12.80;73.00;;;;;;6229898;28;20238;-83
2023/05/16 01:48:09;;;;;;;19.67;17.43;;;12.70;73.10;;;;;;6223919;28;20246;-85
2023/05/16 01:51:13;;;;;;;19.07;16.67;;;12.50;73.10;;;;;;6224897;28;20321;-84
2023/05/16 01:54:19;;;;;;;17.33;15.73;;;12.50;73.00;;;;;;6235529;28;20234;-82
2023/05/16 01:57:27;;;;;;;16.77;15.37;;;12.50;73.10;;;;;;6232720;28;20239;-83
2023/05/16 02:00:31;;;;;;;17.53;15.83;;;12.50;72.90;;;;;;6231035;28;20230;-85
2023/05/16 02:03:35;;;;;;;18.27;16.70;;;12.50;72.60;;;;;;6229184;28;20255;-86
2023/05/16 02:06:38;;;;;;;17.33;15.77;;;12.50;72.70;;;;;;6237368;28;20706;-83
2023/05/16 02:09:41;;;;;;;17.03;15.57;;;12.40;72.40;;;;;;6216615;28;20243;-85
2023/05/16 02:12:46;;;;;;;17.17;15.57;;;12.30;72.50;;;;;;6227216;28;20246;-83
2023/05/16 02:15:49;;;;;;;17.00;15.20;;;12.20;72.60;;;;;;6217819;28;20317;-83
2023/05/16 02:18:52;;;;;;;16.30;14.83;;;12.20;72.60;;;;;;6232887;28;20246;-84
2023/05/16 02:21:56;;;;;;;17.97;16.10;;;12.10;72.80;;;;;;6236418;28;20254;-85
2023/05/16 02:25:00;;;;;;;17.50;15.80;;;12.10;72.50;;;;;;6233519;28;20236;-86
2023/05/16 02:28:05;;;;;;;17.73;16.27;;;12.00;72.20;;;;;;6233704;28;20290;-83
2023/05/16 02:31:08;;;;;;;17.93;16.23;;;12.00;72.30;;;;;;6233432;28;20251;-86
2023/05/16 02:34:11;;;;;;;19.77;17.60;;;12.00;72.20;;;;;;6229685;28;20234;-85
2023/05/16 02:37:15;;;;;;;17.40;15.77;;;11.90;72.10;;;;;;6226788;28;20617;-84
2023/05/16 02:40:18;;;;;;;16.70;15.13;;;11.70;72.30;;;;;;6235094;28;20235;-84
2023/05/16 02:43:22;;;;;;;17.83;16.00;;;11.80;72.00;;;;;;6232289;28;20241;-84
2023/05/16 02:46:27;;;;;;;18.60;16.80;;;11.70;71.80;;;;;;6219085;28;20325;-84
2023/05/16 02:49:30;;;;;;;17.00;15.43;;;11.70;71.80;;;;;;6234166;28;20239;-83
2023/05/16 02:52:33;;;;;;;17.10;15.37;;;11.70;72.00;;;;;;6213090;28;20273;-83
2023/05/16 02:55:36;;;;;;;17.73;15.97;;;11.70;71.90;;;;;;6222969;28;20285;-84
2023/05/16 02:58:41;;;;;;;17.93;16.13;;;11.70;72.00;;;;;;6221752;28;20246;-82
2023/05/16 03:01:44;;;;;;;18.20;16.60;;;11.70;72.10;;;;;;6229951;28;20241;-85
2023/05/16 03:04:48;;;;;;;17.40;15.67;;;11.60;72.10;;;;;;6229840;28;20230;-83
2023/05/16 03:07:51;;;;;;;18.30;15.80;;;11.60;72.10;;;;;;6231729;28;20856;-85
2023/05/16 03:10:54;;;;;;;17.50;15.60;;;11.60;72.20;;;;;;6226947;28;20258;-83
2023/05/16 03:13:59;;;;;;;17.47;15.60;;;11.60;72.30;;;;;;6230819;28;20235;-83
2023/05/16 03:17:04;;;;;;;17.40;15.77;;;11.60;72.20;;;;;;6232863;28;20741;-84
2023/05/16 03:20:10;;;;;;;18.73;16.93;;;11.60;72.20;;;;;;6231499;28;20243;-83
2023/05/16 03:23:13;;;;;;;19.67;17.10;;;11.70;71.80;;;;;;6236708;28;20238;-85
2023/05/16 03:26:17;;;;;;;19.17;17.20;;;11.70;71.90;;;;;;6228607;28;20231;-83
2023/05/16 03:29:21;;;;;;;19.63;17.53;;;11.60;71.90;;;;;;6231005;28;20389;-84
2023/05/16 03:32:25;;;;;;;19.73;17.77;;;11.50;72.10;;;;;;6223887;28;20247;-84
2023/05/16 03:35:28;;;;;;;19.70;17.10;;;11.50;72.10;;;;;;6229159;28;20237;-84
2023/05/16 03:38:32;;;;;;;20.33;18.43;;;11.50;72.10;;;;;;6229407;28;20233;-83
2023/05/16 03:41:35;;;;;;;20.30;18.20;;;11.50;72.20;;;;;;6223821;28;20237;-84
2023/05/16 03:44:40;;;;;;;19.83;17.77;;;11.50;72.40;;;;;;6232818;28;20287;-82
2023/05/16 03:47:43;;;;;;;20.37;17.63;;;11.40;72.60;;;;;;6240374;28;20239;-81
2023/05/16 03:50:46;;;;;;;19.33;17.40;;;11.40;72.40;;;;;;6229966;28;20253;-83
2023/05/16 03:53:49;;;;;;;20.90;18.73;;;11.40;72.50;;;;;;6235708;28;20228;-81
2023/05/16 03:56:52;;;;;;;18.93;17.13;;;11.40;72.60;;;;;;6236337;28;21124;-82
2023/05/16 03:59:57;;;;;;;20.30;18.23;;;11.40;72.50;;;;;;6237209;28;20231;-82
2023/05/16 04:03:00;;;;;;;19.27;17.23;;;11.40;72.30;;;;;;6228604;28;20239;-82
2023/05/16 04:06:04;;;;;;;18.73;17.00;;;11.40;72.50;;;;;;6225454;28;20987;-85
2023/05/16 04:09:07;;;;;;;21.50;18.43;;;11.40;72.40;;;;;;6226987;28;20239;-82
2023/05/16 04:12:10;;;;;;;22.13;18.17;;;11.40;72.40;;;;;;6235361;28;20249;-82
2023/05/16 04:15:14;;;;;;;19.13;17.40;;;11.30;72.60;;;;;;6240451;28;20249;-81
2023/05/16 04:18:18;;;;;;;20.50;18.50;;;11.20;72.80;;;;;;6233461;28;20233;-81
2023/05/16 04:21:21;;;;;;;21.90;17.90;;;11.20;72.80;;;;;;6241852;28;20741;-80
2023/05/16 04:24:27;;;;;;;19.83;18.03;;;11.20;72.80;;;;;;6241431;28;20227;-80
2023/05/16 04:27:30;;;;;;;20.60;18.80;;;11.30;72.70;;;;;;6231505;28;20608;-83
2023/05/16 04:30:35;;;;;;;20.60;18.43;;;11.30;72.60;;;;;;6245306;28;20800;-81
2023/05/16 04:33:38;;;;;;;21.07;19.13;;;11.20;72.70;;;;;;6237416;28;20676;-84
2023/05/16 04:36:41;;;;;;;24.67;22.07;;;11.10;72.90;;;;;;6224592;28;20829;-80
2023/05/16 04:39:45;;;;;;;22.57;20.13;;;11.10;73.00;;;;;;6230254;28;20227;-82
2023/05/16 04:43:33;;;;;;;;;;;;;;;;;;;;;
2023/05/16 04:46:50;;;;;;;22.77;19.93;;;11.10;72.80;;;;;;6208944;28;20254;-82
2023/05/16 04:49:53;;;;;;;21.43;19.33;;;11.10;72.70;;;;;;6233743;28;20243;-83
2023/05/16 04:52:56;;;;;;;26.43;20.53;;;11.00;72.80;;;;;;6235186;28;20245;-82
2023/05/16 04:56:00;;;;;;;25.10;22.43;;;11.00;72.70;;;;;;6228925;28;20309;-81
2023/05/16 04:59:03;;;;;;;22.47;20.00;;;11.00;72.60;;;;;;6236067;28;20231;-82
2023/05/16 05:02:14;;;;;;;26.97;22.77;;;11.00;72.70;;;;;;6237807;28;20807;-82
2023/05/16 05:05:17;;;;;;;24.27;21.73;;;10.90;72.70;;;;;;6236632;28;20242;-81
2023/05/16 05:08:21;;;;;;;25.60;22.47;;;10.90;72.70;;;;;;6243895;28;20242;-82
2023/05/16 05:11:26;;;;;;;24.03;21.20;;;10.90;72.80;;;;;;6240400;28;20668;-83
2023/05/16 05:14:29;;;;;;;26.00;23.30;;;10.90;72.80;;;;;;6223988;28;20776;-82
2023/05/16 05:17:33;;;;;;;25.13;22.53;;;10.90;72.80;;;;;;6244630;28;20235;-80
2023/05/16 05:20:39;;;;;;;23.27;20.97;;;10.90;72.80;;;;;;6253857;28;20250;-80
2023/05/16 05:23:42;;;;;;;23.23;20.90;;;10.90;72.70;;;;;;6262010;28;20242;-79
2023/05/16 05:26:47;;;;;;;22.33;18.70;;;10.90;72.40;;;;;;6253181;28;20713;-81
2023/05/16 05:29:50;;;;;;;21.83;19.63;;;11.00;72.40;;;;;;6254319;28;20261;-79
2023/05/16 05:32:55;;;;;;;22.47;17.80;;;10.90;72.50;;;;;;6256339;28;20780;-81
2023/05/16 05:35:58;;;;;;;21.50;18.03;;;10.80;72.60;;;;;;6254582;28;21420;-79
2023/05/16 05:39:03;;;;;;;20.37;18.27;;;10.90;72.20;;;;;;6252351;28;20593;-81
2023/05/16 05:42:06;;;;;;;21.70;18.97;;;11.00;72.40;;;;;;6251532;28;20244;-81
2023/05/16 05:45:10;;;;;;;21.40;19.10;;;11.00;72.20;;;;;;6256103;28;20249;-82
2023/05/16 05:48:15;;;;;;;21.80;19.60;;;11.00;72.20;;;;;;6254928;28;20334;-81
2023/05/16 05:51:19;;;;;;;21.10;18.03;;;11.00;72.00;;;;;;6250018;28;20239;-82
2023/05/16 05:54:22;;;;;;;20.77;18.77;;;11.00;72.10;;;;;;6263140;28;20238;-82
2023/05/16 05:57:25;;;;;;;20.33;17.83;;;11.10;71.90;;;;;;6251672;28;20725;-82
2023/05/16 06:00:29;;;;;;;19.83;18.00;;;11.10;71.40;;;;;;6262172;28;20321;-82
2023/05/16 06:03:33;;;;;;;16.57;15.00;;;11.10;71.40;;;;;;6256767;28;20648;-79
2023/05/16 06:06:38;;;;;;;19.00;14.00;;;11.10;71.10;;;;;;6249619;28;20368;-82
2023/05/16 06:09:42;;;;;;;15.10;13.40;;;11.10;70.50;;;;;;6243914;28;20265;-82
2023/05/16 06:12:46;;;;;;;15.50;13.80;;;11.10;70.00;;;;;;6260484;28;20301;-80
2023/05/16 06:15:50;;;;;;;13.23;11.93;;;11.10;70.00;;;;;;6249730;28;20234;-81
2023/05/16 06:18:55;;;;;;;14.47;13.13;;;11.30;69.60;;;;;;6263674;28;20321;-84
2023/05/16 06:21:58;;;;;;;13.00;11.90;;;11.30;69.30;;;;;;6258208;28;20270;-81
2023/05/16 06:25:02;;;;;;;13.30;12.10;;;11.40;69.10;;;;;;6251065;28;20241;-81
2023/05/16 06:28:05;;;;;;;13.00;11.43;;;11.40;69.20;;;;;;6260708;28;20349;-81
2023/05/16 06:31:09;;;;;;;13.03;11.73;;;11.50;68.70;;;;;;6254222;28;20315;-79
2023/05/16 06:34:13;;;;;;;12.27;11.27;;;11.70;68.20;;;;;;6258172;28;20632;-84
2023/05/16 06:37:16;;;;;;;13.17;12.07;;;11.70;68.10;;;;;;6255951;28;20716;-82
2023/05/16 06:40:19;;;;;;;12.93;11.73;;;11.70;68.00;;;;;;6260039;28;20238;-83
2023/05/16 06:43:23;;;;;;;12.70;11.60;;;11.90;67.70;;;;;;6258074;28;20234;-83
2023/05/16 06:46:26;;;;;;;13.73;11.10;;;11.90;67.20;;;;;;6265987;28;20242;-80
2023/05/16 06:49:31;;;;;;;11.37;10.47;;;11.70;67.30;;;;;;6250947;28;20234;-82
2023/05/16 06:52:34;;;;;;;11.20;10.17;;;11.70;67.50;;;;;;6261809;28;20315;-83
2023/05/16 06:55:37;;;;;;;10.87;9.90;;;11.70;67.80;;;;;;6248747;28;20238;-81
2023/05/16 06:58:40;;;;;;;9.90;9.10;;;11.70;67.50;;;;;;6249715;28;20876;-80
2023/05/16 07:01:44;;;;;;;10.23;9.50;;;11.70;67.50;;;;;;6255537;28;20289;-80
2023/05/16 07:04:48;;;;;;;9.67;8.80;;;11.70;67.70;;;;;;6255393;28;20288;-83
2023/05/16 07:07:52;;;;;;;9.93;9.03;;;11.70;67.70;;;;;;6253206;28;20238;-82
2023/05/16 07:10:55;;;;;;;10.13;9.30;;;11.70;67.70;;;;;;6260844;28;20243;-84
2023/05/16 07:13:58;;;;;;;12.10;8.83;;;11.70;67.60;;;;;;6261031;28;20305;-82
2023/05/16 07:17:01;;;;;;;9.27;8.60;;;11.60;67.90;;;;;;6264238;28;20250;-81
2023/05/16 07:20:12;;;;;;;9.83;9.03;;;11.70;67.80;;;;;;6259268;28;20967;-82
2023/05/16 07:23:15;;;;;;;9.60;8.50;;;11.70;67.50;;;;;;6258895;28;20239;-83
2023/05/16 07:26:21;;;;;;;8.73;8.17;;;11.70;67.30;;;;;;6261792;28;20238;-84
2023/05/16 07:29:24;;;;;;;9.93;8.30;;;11.70;67.60;;;;;;6257747;28;20689;-81
2023/05/16 07:32:27;;;;;;;7.53;6.93;;;11.80;67.50;;;;;;6249942;28;20321;-80
2023/05/16 07:35:32;;;;;;;7.00;6.50;;;12.00;67.50;;;;;;6258681;28;20248;-81
2023/05/16 07:38:35;;;;;;;7.47;6.83;;;12.30;66.80;;;;;;6262571;28;20230;-83
2023/05/16 07:41:38;;;;;;;7.50;6.80;;;12.50;66.10;;;;;;6267428;28;20317;-83
2023/05/16 07:44:41;;;;;;;7.33;6.73;;;12.80;65.20;;;;;;6257935;28;20222;-83
2023/05/16 07:47:45;;;;;;;9.70;7.50;;;12.80;64.70;;;;;;6263265;28;20261;-80
2023/05/16 07:50:49;;;;;;;6.60;6.17;;;12.80;64.60;;;;;;6251798;28;20740;-82
2023/05/16 07:53:53;;;;;;;6.97;6.23;;;12.80;64.30;;;;;;6236776;28;20246;-83
2023/05/16 07:56:56;;;;;;;7.07;6.43;;;12.70;65.00;;;;;;6239222;28;20244;-83
2023/05/16 07:59:59;;;;;;;6.17;5.70;;;12.70;64.40;;;;;;6240329;28;20341;-81
2023/05/16 08:03:04;;;;;;;6.37;5.97;;;12.60;64.40;;;;;;6241143;28;20277;-83
2023/05/16 08:06:09;;;;;;;6.40;5.40;;;12.50;64.60;;;;;;6234720;28;20790;-84
2023/05/16 08:09:12;;;;;;;8.17;6.17;;;12.50;64.60;;;;;;6240944;28;20227;-83
2023/05/16 08:12:15;;;;;;;5.47;5.07;;;12.30;64.90;;;;;;6242761;28;20325;-83
2023/05/16 08:15:19;;;;;;;5.60;5.30;;;12.40;65.00;;;;;;6242802;28;20624;-81
2023/05/16 08:18:22;;;;;;;5.40;5.13;;;12.30;65.00;;;;;;6239415;28;20347;-83
2023/05/16 08:21:26;;;;;;;5.40;5.13;;;12.30;65.30;;;;;;6225336;28;20241;-81
2023/05/16 08:24:30;;;;;;;5.30;5.00;;;12.20;65.50;;;;;;6235663;28;20232;-82
2023/05/16 08:27:33;;;;;;;6.03;5.27;;;12.20;65.20;;;;;;6232520;28;20250;-79
2023/05/16 08:30:36;;;;;;;5.57;5.17;;;12.10;65.70;;;;;;6233602;28;20269;-81
2023/05/16 08:33:41;;;;;;;5.50;5.20;;;12.00;65.30;;;;;;6242052;28;20246;-80
2023/05/16 08:36:46;;;;;;;5.60;5.30;;;12.00;65.80;;;;;;6236771;28;20274;-80
2023/05/16 08:39:52;;;;;;;5.93;5.20;;;11.90;65.70;;;;;;6225816;28;20239;-81
2023/05/16 08:42:55;;;;;;;5.70;5.20;;;11.90;65.90;;;;;;6230814;28;20246;-82
2023/05/16 08:45:59;;;;;;;5.40;4.90;;;11.90;65.80;;;;;;6230761;28;20332;-81
2023/05/16 08:49:06;;;;;;;4.73;4.37;;;11.90;65.90;;;;;;6245605;28;20234;-81
2023/05/16 08:52:13;;;;;;;4.37;4.17;;;11.90;65.50;;;;;;6228091;28;20246;-82
2023/05/16 08:55:19;;;;;;;4.37;4.17;;;11.90;65.60;;;;;;6225654;28;20257;-82
2023/05/16 08:58:22;;;;;;;4.37;3.97;;;12.00;65.60;;;;;;6242711;28;20315;-82
2023/05/16 09:01:25;;;;;;;4.43;4.03;;;12.20;65.10;;;;;;6233836;28;20262;-82
2023/05/16 09:04:29;;;;;;;4.20;3.80;;;12.20;64.80;;;;;;6236529;28;20646;-80
2023/05/16 09:07:34;;;;;;;4.20;3.80;;;12.20;64.60;;;;;;6229410;28;20238;-82
2023/05/16 09:10:37;;;;;;;4.07;3.77;;;12.40;64.10;;;;;;6247497;28;20313;-81
2023/05/16 09:13:40;;;;;;;4.30;3.73;;;12.60;64.00;;;;;;6241391;28;20238;-81
2023/05/16 09:16:45;;;;;;;3.70;3.40;;;12.90;63.40;;;;;;6250261;28;20424;-81
2023/05/16 09:19:51;;;;;;;3.43;3.30;;;13.00;62.90;;;;;;6247696;28;20258;-80
2023/05/16 09:22:58;;;;;;;5.93;3.70;;;13.00;62.70;;;;;;6251013;28;20243;-80
2023/05/16 09:26:01;;;;;;;4.73;3.83;;;13.10;62.80;;;;;;6227079;28;20243;-84
2023/05/16 09:29:11;;;;;;;4.07;3.77;;;13.10;62.50;;;;;;6243971;28;20242;-83
2023/05/16 09:32:16;;;;;;;4.90;3.50;;;13.10;62.60;;;;;;6227870;28;20289;-81
2023/05/16 09:35:20;;;;;;;5.33;3.30;;;12.90;62.90;;;;;;6226745;28;20303;-82
2023/05/16 09:38:45;;;;;;;3.83;3.20;;;12.90;62.70;;;;;;6237572;28;20292;-82
2023/05/16 09:41:52;;;;;;;3.40;3.10;;;12.70;63.70;;;;;;6247482;28;20249;-81
2023/05/16 09:44:56;;;;;;;5.73;3.73;;;12.80;63.00;;;;;;6240677;28;20234;-81
2023/05/16 09:48:04;;;;;;;3.37;3.00;;;12.80;62.20;;;;;;6243224;28;20245;-82
2023/05/16 09:51:08;;;;;;;4.17;3.23;;;12.80;61.90;;;;;;6221539;28;20322;-83
2023/05/16 09:54:13;;;;;;;4.13;3.77;;;12.90;61.90;;;;;;6235559;28;20238;-82
2023/05/16 09:57:22;;;;;;;6.23;3.13;;;13.00;61.50;;;;;;6220972;28;20234;-81
2023/05/16 10:00:30;;;;;;;3.50;3.20;;;13.00;61.40;;;;;;6238889;28;20729;-82
2023/05/16 10:03:34;;;;;;;3.33;3.00;;;13.00;61.30;;;;;;6238772;28;20241;-83
2023/05/16 10:06:38;;;;;;;4.00;3.20;;;13.00;61.60;;;;;;6240273;28;20230;-80
2023/05/16 10:09:45;;;;;;;4.73;3.67;;;12.90;61.60;;;;;;6232913;28;20886;-82
2023/05/16 10:12:48;;;;;;;4.83;3.43;;;12.80;61.90;;;;;;6228121;28;20338;-83
2023/05/16 10:15:56;;;;;;;5.40;3.30;;;12.70;62.30;;;;;;6232524;28;20250;-80
2023/05/16 10:19:01;;;;;;;5.17;4.13;;;12.70;62.50;;;;;;6239148;28;20634;-81
2023/05/16 10:22:06;;;;;;;3.40;3.20;;;12.70;62.80;;;;;;6233412;28;20243;-82
2023/05/16 10:25:17;;;;;;;6.80;4.33;;;12.70;63.00;;;;;;6224662;28;20234;-82
2023/05/16 10:28:21;;;;;;;6.73;3.60;;;12.70;63.20;;;;;;6227267;28;20324;-84
2023/05/16 10:31:24;;;;;;;4.73;4.10;;;12.80;63.10;;;;;;6222741;28;20649;-84
2023/05/16 10:34:28;;;;;;;6.87;3.90;;;12.90;62.70;;;;;;6243070;28;20732;-82
2023/05/16 10:37:32;;;;;;;4.07;3.70;;;13.00;62.70;;;;;;6230995;28;20234;-83
2023/05/16 10:40:39;;;;;;;4.27;3.60;;;13.10;62.20;;;;;;6234622;28;20920;-82
2023/05/16 10:43:46;;;;;;;10.37;4.00;;;13.50;62.20;;;;;;6234863;28;20245;-83
2023/05/16 10:46:49;;;;;;;7.20;4.03;;;13.80;61.10;;;;;;6228321;28;20234;-81
2023/05/16 10:49:53;;;;;;;5.40;4.37;;;13.90;60.60;;;;;;6238058;28;20238;-81
2023/05/16 10:52:56;;;;;;;8.10;4.10;;;13.60;61.20;;;;;;6234974;28;20255;-83
2023/05/16 10:56:11;;;;;;;7.77;4.67;;;13.50;61.30;;;;;;6238665;28;20238;-81
2023/05/16 10:59:25;;;;;;;6.93;4.30;;;13.40;61.70;;;;;;6244572;28;20246;-79
2023/05/16 11:02:31;;;;;;;10.57;4.10;;;12.90;62.10;;;;;;6255742;28;20870;-80
2023/05/16 11:05:36;;;;;;;6.10;4.40;;;12.80;62.30;;;;;;6256730;28;20213;-79
2023/05/16 11:09:04;;;;;;;5.00;3.90;;;12.50;61.90;;;;;;6269388;28;20233;-80
2023/05/16 11:12:10;;;;;;;7.43;4.20;;;12.50;62.50;;;;;;6262533;28;20228;-76
2023/05/16 11:15:21;;;;;;;7.37;4.30;;;12.60;62.20;;;;;;6253824;28;20332;-83
2023/05/16 11:18:24;;;;;;;7.47;3.63;;;12.90;61.70;;;;;;6239566;28;20228;-81
2023/05/16 11:22:17;;;;;;;10.83;4.33;;;13.10;61.60;;;;;;6230322;28;20253;-82
2023/05/16 11:25:38;;;;;;;10.63;4.10;;;13.60;60.70;;;;;;6237378;28;20227;-81
2023/05/16 11:28:41;;;;;;;7.17;3.67;;;13.70;59.10;;;;;;6237994;28;20231;-82
2023/05/16 11:31:45;;;;;;;6.87;3.60;;;13.90;58.80;;;;;;6240736;28;20234;-84
2023/05/16 11:34:49;;;;;;;7.93;4.30;;;13.90;58.70;;;;;;6235806;28;20561;-83
2023/05/16 11:37:54;;;;;;;6.07;3.43;;;13.90;58.60;;;;;;6225051;28;20254;-81
2023/05/16 11:41:04;;;;;;;10.77;4.23;;;13.80;58.70;;;;;;6221212;28;20248;-82
2023/05/16 11:44:07;;;;;;;7.10;3.73;;;13.70;58.80;;;;;;6239351;28;20254;-83
2023/05/16 11:47:11;;;;;;;10.27;3.60;;;13.60;58.50;;;;;;6233141;28;20750;-82
2023/05/16 11:50:15;;;;;;;8.63;4.20;;;13.60;58.90;;;;;;6229566;28;20238;-82
2023/05/16 11:53:21;;;;;;;6.77;3.90;;;13.80;58.30;;;;;;6238202;28;20242;-80
2023/05/16 11:56:24;;;;;;;4.83;3.13;;;14.10;57.70;;;;;;6225600;28;20330;-84
2023/05/16 11:59:28;;;;;;;7.03;3.27;;;14.70;55.80;;;;;;6241011;28;20306;-80
2023/05/16 12:02:32;;;;;;;6.83;3.20;;;14.90;56.20;;;;;;6239492;28;20231;-81
2023/05/16 12:05:36;;;;;;;7.27;3.40;;;14.90;55.20;;;;;;6240643;28;20622;-79
2023/05/16 12:08:50;;;;;;;5.43;3.50;;;14.70;55.00;;;;;;6240796;28;20243;-82
2023/05/16 12:11:53;;;;;;;3.63;3.27;;;14.70;55.30;;;;;;6242009;28;20324;-82
2023/05/16 12:14:56;;;;;;;7.77;3.53;;;14.50;55.40;;;;;;6237889;28;20368;-81
2023/05/16 12:18:01;;;;;;;3.53;3.03;;;14.50;56.20;;;;;;6231155;28;20289;-82
2023/05/16 12:21:04;;;;;;;4.33;3.30;;;14.50;56.40;;;;;;6235841;28;20246;-81
2023/05/16 12:24:12;;;;;;;11.67;3.87;;;14.60;55.40;;;;;;6241206;28;20309;-81
2023/05/16 12:27:22;;;;;;;7.13;3.50;;;14.40;55.40;;;;;;6240950;28;20744;-81
2023/05/16 12:30:26;;;;;;;6.43;3.33;;;14.40;56.00;;;;;;6239206;28;20250;-82
2023/05/16 12:33:30;;;;;;;7.57;3.53;;;14.60;55.60;;;;;;6240017;28;20245;-81
2023/05/16 12:36:34;;;;;;;8.50;3.20;;;14.50;56.20;;;;;;6234039;28;20316;-81
2023/05/16 12:39:39;;;;;;;8.03;3.47;;;14.70;56.40;;;;;;6224920;28;20234;-86
2023/05/16 12:42:44;;;;;;;3.40;3.17;;;14.90;56.00;;;;;;6226169;28;20754;-84
2023/05/16 12:45:51;;;;;;;7.50;3.10;;;15.20;55.40;;;;;;6225614;28;20239;-83
2023/05/16 12:49:03;;;;;;;6.50;3.50;;;15.00;55.00;;;;;;6237059;28;20246;-82
2023/05/16 12:52:17;;;;;;;5.50;3.10;;;15.20;54.30;;;;;;6232149;28;20724;-82
2023/05/16 12:55:23;;;;;;;6.40;3.37;;;15.30;53.90;;;;;;6232687;28;20246;-83
2023/05/16 12:58:30;;;;;;;5.87;3.20;;;15.50;53.20;;;;;;6244065;28;20254;-83
2023/05/16 13:01:33;;;;;;;6.40;3.10;;;15.60;53.30;;;;;;6229887;28;20846;-80
2023/05/16 13:04:36;;;;;;;3.97;3.10;;;16.00;52.60;;;;;;6236842;28;20227;-81
2023/05/16 13:07:40;;;;;;;3.90;2.93;;;16.00;52.20;;;;;;6234470;28;20602;-82
2023/05/16 13:10:45;;;;;;;6.03;2.90;;;16.10;50.90;;;;;;6238761;28;20369;-81
2023/05/16 13:13:48;;;;;;;6.57;3.13;;;15.90;51.10;;;;;;6230483;28;20734;-82
2023/05/16 13:16:51;;;;;;;4.60;3.03;;;15.70;51.50;;;;;;6227949;28;20947;-83
2023/05/16 13:19:54;;;;;;;7.73;3.40;;;15.60;52.20;;;;;;6237234;28;20851;-84
2023/05/16 13:22:57;;;;;;;8.17;3.60;;;15.60;52.10;;;;;;6236699;28;20262;-84
2023/05/16 13:26:04;;;;;;;7.70;3.13;;;15.60;51.50;;;;;;6238725;28;20348;-84
2023/05/16 13:29:08;;;;;;;4.80;2.80;;;15.80;51.70;;;;;;6231694;28;20289;-83
2023/05/16 13:32:11;;;;;;;10.07;3.47;;;16.00;51.50;;;;;;6237288;28;20292;-81
2023/05/16 13:35:14;;;;;;;4.77;3.10;;;16.20;50.80;;;;;;6239449;28;20242;-81
2023/05/16 13:38:18;;;;;;;4.40;3.27;;;16.20;50.70;;;;;;6230698;28;20319;-84
2023/05/16 13:41:22;;;;;;;5.40;3.30;;;16.40;50.40;;;;;;6239315;28;20231;-80
2023/05/16 13:44:25;;;;;;;5.97;2.90;;;16.50;49.40;;;;;;6226208;28;20232;-83
2023/05/16 13:47:28;;;;;;;5.37;3.00;;;16.70;48.90;;;;;;6232368;28;20856;-82
2023/05/16 13:50:32;;;;;;;7.67;3.07;;;16.70;48.20;;;;;;6233416;28;20226;-82
2023/05/16 13:53:38;;;;;;;5.67;3.10;;;16.60;48.40;;;;;;6235072;28;20680;-81
2023/05/16 13:56:42;;;;;;;3.97;2.90;;;16.40;49.20;;;;;;6235117;28;20241;-84
2023/05/16 13:59:48;;;;;;;4.70;2.70;;;16.30;49.20;;;;;;6239626;28;20293;-84
2023/05/16 14:03:11;;;;;;;5.53;3.03;;;16.40;47.70;;;;;;6236244;28;20385;-81
2023/05/16 14:06:14;;;;;;;6.57;2.67;;;16.40;47.80;;;;;;6242031;28;20238;-83
2023/05/16 14:09:17;;;;;;;7.03;3.10;;;16.40;48.00;;;;;;6239676;28;20836;-82
2023/05/16 14:12:22;;;;;;;4.23;2.57;;;16.50;47.00;;;;;;6239946;28;20626;-85
2023/05/16 14:15:27;;;;;;;4.40;2.70;;;16.60;46.90;;;;;;6236560;28;20638;-82
2023/05/16 14:18:31;;;;;;;4.60;2.80;;;16.70;47.50;;;;;;6239762;28;20243;-83
2023/05/16 14:21:34;;;;;;;4.00;2.70;;;16.70;46.40;;;;;;6239454;28;20239;-84
2023/05/16 14:24:37;;;;;;;4.87;2.80;;;16.60;47.10;;;;;;6238392;28;20238;-85
2023/05/16 14:27:41;;;;;;;7.03;3.07;;;16.70;46.00;;;;;;6231056;28;20293;-81
2023/05/16 14:30:45;;;;;;;3.23;2.47;;;16.60;46.20;;;;;;6246925;28;20239;-78
2023/05/16 14:33:50;;;;;;;4.83;2.80;;;16.80;46.20;;;;;;6235937;28;20246;-84
2023/05/16 14:36:53;;;;;;;5.00;2.63;;;16.80;46.10;;;;;;6229548;28;20251;-81
2023/05/16 14:39:56;;;;;;;4.87;2.63;;;16.80;46.50;;;;;;6229822;28;20234;-81
2023/05/16 14:43:03;;;;;;;3.73;3.27;;;16.70;46.30;;;;;;6231395;28;20667;-81
2023/05/16 14:46:06;;;;;;;2.70;2.50;;;16.60;46.30;;;;;;6228268;28;20255;-80
2023/05/16 14:49:09;;;;;;;6.60;2.47;;;17.00;46.20;;;;;;6236294;28;20289;-82
2023/05/16 14:52:14;;;;;;;5.53;2.70;;;17.00;45.20;;;;;;6235607;28;20283;-82
2023/05/16 14:55:17;;;;;;;3.70;2.40;;;17.10;44.90;;;;;;6235798;28;20239;-84
2023/05/16 14:58:22;;;;;;;6.23;2.70;;;17.10;45.30;;;;;;6225129;28;20337;-83
2023/05/16 15:01:25;;;;;;;4.30;2.50;;;17.20;44.50;;;;;;6247487;28;20266;-79
2023/05/16 15:04:29;;;;;;;2.30;2.10;;;17.30;44.50;;;;;;6266117;28;20306;-80
2023/05/16 15:07:32;;;;;;;4.87;2.30;;;17.20;45.10;;;;;;6263407;28;20221;-78
2023/05/16 15:10:38;;;;;;;7.57;2.70;;;17.20;44.00;;;;;;6270392;28;20267;-79
2023/05/16 15:13:42;;;;;;;9.47;2.93;;;17.00;44.80;;;;;;6261280;28;20216;-78
2023/05/16 15:16:46;;;;;;;2.27;2.07;;;17.20;43.80;;;;;;6256479;28;20227;-78
2023/05/16 15:19:51;;;;;;;4.90;2.80;;;17.20;44.60;;;;;;6261623;28;20242;-79
2023/05/16 15:22:55;;;;;;;3.57;2.37;;;17.40;43.70;;;;;;6264708;28;20235;-77
2023/05/16 15:25:58;;;;;;;3.43;2.47;;;17.50;43.30;;;;;;6262834;28;20215;-77
2023/05/16 15:29:02;;;;;;;3.40;2.43;;;17.30;43.70;;;;;;6259131;28;20219;-79
2023/05/16 15:32:06;;;;;;;5.60;2.63;;;17.20;43.10;;;;;;6260858;28;20226;-79
2023/05/16 15:35:10;;;;;;;4.83;2.87;;;17.20;43.40;;;;;;6264665;28;20253;-81
2023/05/16 15:38:13;;;;;;;4.20;2.30;;;16.90;43.20;;;;;;6220875;28;20234;-81
2023/05/16 15:41:16;;;;;;;3.43;3.13;;;16.90;42.90;;;;;;6238319;28;20242;-80
2023/05/16 15:44:41;;;;;;;4.77;2.27;;;17.00;42.30;;;;;;6233378;28;20235;-82
2023/05/16 15:47:44;;;;;;;2.90;2.30;;;17.30;42.90;;;;;;6242604;28;20265;-80
2023/05/16 15:50:47;;;;;;;3.97;2.50;;;17.50;43.10;;;;;;6251967;28;20320;-79
2023/05/16 15:53:52;;;;;;;3.77;2.40;;;17.80;42.20;;;;;;6243425;28;20729;-81